Time;durP1;ratioP1;P1;durP2;ratioP2;P2;SDS_P1;SDS_P2;PMS_P1;PMS_P2;Temp;Humidity;BMP_temperature;BMP_pressure;BME280_temperature;BME280_humidity;BME280_pressure;Samples;Min_cycle;Max_cycle;Signal;HPM_P1;HPM_P2
2023/08/05 00:01:12;;;;;;;;;10.33;9.00;;;;;;;;5055053;28;45574;-78
2023/08/05 00:04:03;;;;;;;;;10.67;10.67;;;;;;;;5061663;28;45431;-79
2023/08/05 00:06:31;;;;;;;;;12.33;11.33;;;;;;;;5055082;28;45766;-79
2023/08/05 00:09:06;;;;;;;;;12.67;12.67;;;;;;;;5057861;28;46129;-78
2023/08/05 00:11:32;;;;;;;;;9.33;8.67;;;;;;;;5047285;28;45472;-78
2023/08/05 00:13:58;;;;;;;;;10.33;9.33;;;;;;;;5051818;28;45991;-79
2023/08/05 00:16:24;;;;;;;;;11.33;9.33;;;;;;;;5052973;28;45792;-79
2023/08/05 00:18:49;;;;;;;;;10.00;10.00;;;;;;;;5051601;28;45721;-78
2023/08/05 00:21:18;;;;;;;;;10.00;10.00;;;;;;;;5046018;28;46567;-79
2023/08/05 00:23:46;;;;;;;;;11.33;10.33;;;;;;;;5044081;28;46157;-81
2023/08/05 00:26:14;;;;;;;;;9.33;9.33;;;;;;;;5055906;28;45844;-78
2023/08/05 00:28:40;;;;;;;;;10.33;8.33;;;;;;;;5053493;28;45681;-79
2023/08/05 00:31:07;;;;;;;;;11.33;10.00;;;;;;;;5048415;28;45870;-79
2023/08/05 00:33:32;;;;;;;;;8.33;8.33;;;;;;;;5037134;28;45369;-79
2023/08/05 00:36:00;;;;;;;;;9.67;8.00;;;;;;;;5055167;28;45365;-78
2023/08/05 00:38:25;;;;;;;;;9.67;9.33;;;;;;;;5052299;28;45803;-79
2023/08/05 00:40:51;;;;;;;;;12.00;9.67;;;;;;;;5050798;28;48310;-79
2023/08/05 00:43:16;;;;;;;;;12.33;10.00;;;;;;;;5051051;28;45521;-79
2023/08/05 00:45:42;;;;;;;;;12.00;8.33;;;;;;;;5047133;28;45576;-79
2023/08/05 00:48:07;;;;;;;;;10.67;8.00;;;;;;;;5043647;28;45880;-79
2023/08/05 00:50:35;;;;;;;;;6.00;6.00;;;;;;;;5052262;28;45480;-78
2023/08/05 00:53:02;;;;;;;;;13.33;9.33;;;;;;;;5056698;28;45310;-79
2023/08/05 00:55:32;;;;;;;;;9.00;8.33;;;;;;;;5064109;28;45307;-79
2023/08/05 00:58:04;;;;;;;;;11.67;9.00;;;;;;;;5060841;28;45401;-79
2023/08/05 01:00:32;;;;;;;;;11.00;10.33;;;;;;;;5053574;28;45735;-80
2023/08/05 01:02:59;;;;;;;;;7.67;6.00;;;;;;;;5052870;28;45435;-79
2023/08/05 01:05:26;;;;;;;;;9.67;8.67;;;;;;;;5044803;28;45684;-79
2023/08/05 01:08:30;;;;;;;;;12.00;8.00;;;;;;;;5051200;28;45821;-79
2023/08/05 01:11:31;;;;;;;;;;;;;;;;;;;;;
2023/08/05 01:14:33;;;;;;;;;;;;;;;;;;;;;
2023/08/05 01:17:24;;;;;;;;;12.00;7.67;;;;;;;;5050976;28;67298;-78
2023/08/05 01:20:16;;;;;;;;;10.67;10.00;;;;;;;;5032304;28;45412;-79
2023/08/05 01:22:51;;;;;;;;;9.33;8.67;;;;;;;;5050458;28;45580;-78
2023/08/05 01:28:18;;;;;;;;;8.33;8.00;;;;;;;;5046635;28;45863;-78
2023/08/05 01:30:51;;;;;;;;;9.33;9.00;;;;;;;;5050853;28;45520;-79
2023/08/05 01:33:29;;;;;;;;;10.67;7.33;;;;;;;;5050081;28;46007;-78
2023/08/05 01:36:11;;;;;;;;;8.00;6.00;;;;;;;;5051942;28;45483;-78
2023/08/05 01:38:51;;;;;;;;;;;;;;;;;;;;;
2023/08/05 01:41:33;;;;;;;;;10.33;8.67;;;;;;;;5048641;28;72550;-79
2023/08/05 01:44:11;;;;;;;;;9.33;8.67;;;;;;;;5050249;28;45737;-78
2023/08/05 01:46:48;;;;;;;;;9.67;9.33;;;;;;;;5050883;28;45839;-77
2023/08/05 01:49:42;;;;;;;;;;;;;;;;;;;;;
2023/08/05 01:52:14;;;;;;;;;11.67;8.33;;;;;;;;5071333;28;72544;-78
2023/08/05 01:54:50;;;;;;;;;10.00;7.33;;;;;;;;5047503;28;47990;-79
2023/08/05 01:57:19;;;;;;;;;8.00;6.33;;;;;;;;5071018;28;45816;-78
2023/08/05 01:59:46;;;;;;;;;7.67;7.33;;;;;;;;5052618;28;45417;-78
2023/08/05 02:02:22;;;;;;;;;10.00;8.00;;;;;;;;5071280;28;45733;-79
2023/08/05 02:04:47;;;;;;;;;8.67;7.67;;;;;;;;5063455;28;45995;-80
2023/08/05 02:07:13;;;;;;;;;5.67;5.00;;;;;;;;5053672;28;45372;-79
2023/08/05 02:09:38;;;;;;;;;5.67;5.67;;;;;;;;5069415;28;45544;-78
2023/08/05 02:12:29;;;;;;;;;8.00;7.00;;;;;;;;5044253;28;46416;-79
2023/08/05 02:14:57;;;;;;;;;8.00;5.67;;;;;;;;5066783;28;45871;-79
2023/08/05 02:17:42;;;;;;;;;9.00;8.67;;;;;;;;5052195;28;45754;-78
2023/08/05 02:20:08;;;;;;;;;9.00;7.00;;;;;;;;5063574;28;45715;-77
2023/08/05 02:23:01;;;;;;;;;9.00;7.67;;;;;;;;5070783;28;45657;-80
2023/08/05 02:25:43;;;;;;;;;9.33;9.33;;;;;;;;5070572;28;45457;-79
2023/08/05 02:28:11;;;;;;;;;11.00;9.00;;;;;;;;5051479;28;45732;-79
2023/08/05 02:30:51;;;;;;;;;8.00;8.00;;;;;;;;5050940;28;45465;-79
2023/08/05 02:33:32;;;;;;;;;6.67;4.33;;;;;;;;5066502;28;45799;-79
2023/08/05 02:36:00;;;;;;;;;5.00;5.00;;;;;;;;5071837;28;45651;-78
2023/08/05 02:38:34;;;;;;;;;8.00;7.33;;;;;;;;5068393;28;45580;-79
2023/08/05 02:41:42;;;;;;;;;5.33;5.33;;;;;;;;5055695;28;45462;-78
2023/08/05 02:44:11;;;;;;;;;8.00;7.00;;;;;;;;5056378;28;45809;-78
2023/08/05 02:46:36;;;;;;;;;9.67;7.33;;;;;;;;5078799;28;45647;-78
2023/08/05 02:49:02;;;;;;;;;19.00;18.33;;;;;;;;5067265;28;45433;-78
2023/08/05 02:51:27;;;;;;;;;17.67;14.00;;;;;;;;5056311;28;45938;-79
2023/08/05 02:53:53;;;;;;;;;16.33;14.67;;;;;;;;5069863;28;45709;-79
2023/08/05 02:56:19;;;;;;;;;16.67;12.33;;;;;;;;5059821;28;46331;-80
2023/08/05 02:58:45;;;;;;;;;12.00;12.00;;;;;;;;5066933;28;45715;-77
2023/08/05 03:01:15;;;;;;;;;7.33;7.33;;;;;;;;5050748;28;45947;-79
2023/08/05 03:03:47;;;;;;;;;2.67;2.67;;;;;;;;5055041;28;45651;-78
2023/08/05 03:06:27;;;;;;;;;9.67;7.00;;;;;;;;5063565;28;46765;-78
2023/08/05 03:08:55;;;;;;;;;10.33;7.67;;;;;;;;5076552;28;45501;-78
2023/08/05 03:11:25;;;;;;;;;7.67;6.67;;;;;;;;5058296;28;45955;-78
2023/08/05 03:13:51;;;;;;;;;17.33;14.00;;;;;;;;5059232;28;46874;-79
2023/08/05 03:16:17;;;;;;;;;8.33;5.00;;;;;;;;5076888;28;45437;-79
2023/08/05 03:19:06;;;;;;;;;9.67;8.33;;;;;;;;5049542;28;45507;-79
2023/08/05 03:21:38;;;;;;;;;12.33;9.67;;;;;;;;5069072;28;45830;-79
2023/08/05 03:24:09;;;;;;;;;12.67;7.67;;;;;;;;5076976;28;45960;-79
2023/08/05 03:26:35;;;;;;;;;10.33;9.67;;;;;;;;5059961;28;45836;-78
2023/08/05 03:29:04;;;;;;;;;10.33;10.33;;;;;;;;5059220;28;45829;-79
2023/08/05 03:31:38;;;;;;;;;5.67;5.67;;;;;;;;5060835;28;45344;-78
2023/08/05 03:49:37;;;;;;;;;6.67;6.00;;;;;;;;4888523;29;45642;-83
2023/08/05 03:52:05;;;;;;;;;7.33;6.00;;;;;;;;4982205;28;45428;-79
2023/08/05 03:57:57;;;;;;;;;5.33;5.33;;;;;;;;5027225;28;45560;-78
2023/08/05 04:01:21;;;;;;;;;8.67;5.67;;;;;;;;5032927;28;45961;-75
2023/08/05 04:04:04;;;;;;;;;6.67;5.33;;;;;;;;5057242;28;45577;-78
2023/08/05 04:06:47;;;;;;;;;6.00;6.00;;;;;;;;5056214;28;45746;-77
2023/08/05 04:09:13;;;;;;;;;8.67;6.00;;;;;;;;5039297;28;45859;-78
2023/08/05 04:11:38;;;;;;;;;6.33;6.00;;;;;;;;5050989;28;46113;-77
2023/08/05 04:14:15;;;;;;;;;3.67;3.67;;;;;;;;5054383;28;44752;-76
2023/08/05 04:16:55;;;;;;;;;6.00;4.67;;;;;;;;5050867;28;45983;-82
2023/08/05 04:19:37;;;;;;;;;5.33;5.00;;;;;;;;5057085;28;45423;-82
2023/08/05 04:22:38;;;;;;;;;6.00;4.00;;;;;;;;5056687;28;45498;-79
2023/08/05 04:25:15;;;;;;;;;6.33;5.00;;;;;;;;5038488;28;45573;-79
2023/08/05 04:27:58;;;;;;;;;10.00;7.33;;;;;;;;5048309;28;45841;-80
2023/08/05 04:30:36;;;;;;;;;5.33;5.33;;;;;;;;5041219;28;45872;-81
2023/08/05 04:33:37;;;;;;;;;6.00;4.67;;;;;;;;5053103;28;46155;-80
2023/08/05 04:36:41;;;;;;;;;6.33;5.00;;;;;;;;4976740;28;45650;-81
2023/08/05 04:39:32;;;;;;;;;;;;;;;;;;;;;
2023/08/05 04:42:06;;;;;;;;;7.67;6.00;;;;;;;;5016642;28;74288;-78
2023/08/05 04:47:20;;;;;;;;;5.00;4.00;;;;;;;;5046315;28;45368;-80
2023/08/05 04:49:51;;;;;;;;;3.33;3.33;;;;;;;;5059922;28;45642;-79
2023/08/05 04:52:53;;;;;;;;;3.67;3.67;;;;;;;;5079309;28;45586;-79
2023/08/05 04:58:26;;;;;;;;;3.00;3.00;;;;;;;;5076643;28;45518;-79
2023/08/05 05:00:55;;;;;;;;;3.33;3.33;;;;;;;;5077062;28;45501;-78
2023/08/05 05:03:23;;;;;;;;;4.67;4.00;;;;;;;;5075846;28;45998;-79
2023/08/05 05:06:06;;;;;;;;;4.33;3.00;;;;;;;;5077913;28;45453;-78
2023/08/05 05:08:31;;;;;;;;;3.00;3.00;;;;;;;;5059839;28;46010;-78
2023/08/05 05:10:58;;;;;;;;;8.33;3.00;;;;;;;;5066560;28;45582;-78
2023/08/05 05:13:23;;;;;;;;;18.67;13.33;;;;;;;;5073523;28;45638;-78
2023/08/05 05:15:52;;;;;;;;;5.67;4.00;;;;;;;;5074063;28;45168;-77
2023/08/05 05:18:20;;;;;;;;;9.33;6.67;;;;;;;;5054404;28;45844;-79
2023/08/05 05:20:50;;;;;;;;;11.00;8.67;;;;;;;;5072003;28;45617;-77
2023/08/05 05:23:15;;;;;;;;;8.00;7.67;;;;;;;;5048006;28;46082;-77
2023/08/05 05:25:40;;;;;;;;;5.00;5.00;;;;;;;;5058650;28;46275;-77
2023/08/05 05:28:05;;;;;;;;;3.00;3.00;;;;;;;;5071552;28;46056;-78
2023/08/05 05:30:30;;;;;;;;;4.00;2.33;;;;;;;;5072109;28;45473;-78
2023/08/05 05:32:56;;;;;;;;;3.00;3.00;;;;;;;;5070164;28;45522;-78
2023/08/05 05:35:21;;;;;;;;;5.00;4.00;;;;;;;;5051536;28;46113;-80
2023/08/05 05:37:47;;;;;;;;;5.00;5.00;;;;;;;;5053480;28;45527;-77
2023/08/05 05:40:12;;;;;;;;;4.33;2.00;;;;;;;;5071953;28;45942;-76
2023/08/05 05:42:37;;;;;;;;;4.67;4.67;;;;;;;;5071300;28;45969;-77
2023/08/05 05:45:03;;;;;;;;;6.00;5.33;;;;;;;;5065231;28;45417;-77
2023/08/05 05:47:28;;;;;;;;;9.00;6.00;;;;;;;;5071826;28;45720;-78
2023/08/05 05:49:54;;;;;;;;;10.33;6.33;;;;;;;;5053689;28;45688;-80
2023/08/05 05:52:19;;;;;;;;;8.00;8.00;;;;;;;;5072570;28;45872;-78
2023/08/05 05:54:44;;;;;;;;;4.00;3.00;;;;;;;;5072173;28;46596;-80
2023/08/05 05:57:10;;;;;;;;;3.67;3.67;;;;;;;;5038824;28;45427;-80
2023/08/05 05:59:37;;;;;;;;;6.67;6.00;;;;;;;;5067772;28;45442;-78
2023/08/05 06:02:06;;;;;;;;;2.00;2.00;;;;;;;;5030035;28;46266;-78
2023/08/05 06:04:31;;;;;;;;;3.33;3.00;;;;;;;;5062593;28;45860;-80
2023/08/05 06:06:57;;;;;;;;;6.33;4.00;;;;;;;;5063586;28;45572;-77
2023/08/05 06:09:22;;;;;;;;;4.00;4.00;;;;;;;;5069485;27;45492;-79
2023/08/05 06:11:47;;;;;;;;;5.00;4.00;;;;;;;;5046105;28;45946;-77
2023/08/05 06:14:12;;;;;;;;;4.25;4.25;;;;;;;;5066623;28;45978;-78
2023/08/05 06:16:38;;;;;;;;;3.25;2.00;;;;;;;;5070541;28;45828;-78
2023/08/05 06:19:03;;;;;;;;;6.00;3.00;;;;;;;;5053783;28;45368;-78
2023/08/05 06:21:29;;;;;;;;;4.00;3.00;;;;;;;;5045004;28;45763;-78
2023/08/05 06:23:55;;;;;;;;;2.00;2.00;;;;;;;;5053080;28;47132;-78
2023/08/05 06:26:20;;;;;;;;;3.25;2.00;;;;;;;;5074082;28;46205;-78
2023/08/05 06:28:45;;;;;;;;;3.00;3.00;;;;;;;;5072929;28;45834;-79
2023/08/05 06:31:11;;;;;;;;;2.50;2.50;;;;;;;;5069402;28;46022;-78
2023/08/05 06:33:36;;;;;;;;;2.75;2.75;;;;;;;;5073129;28;46095;-78
2023/08/05 06:36:02;;;;;;;;;4.25;3.00;;;;;;;;5074034;28;45617;-77
2023/08/05 06:38:28;;;;;;;;;3.50;2.25;;;;;;;;5056124;28;45742;-77
2023/08/05 06:40:53;;;;;;;;;4.00;2.25;;;;;;;;5073689;28;45618;-77
2023/08/05 06:43:19;;;;;;;;;3.00;2.00;;;;;;;;5044134;28;45473;-78
2023/08/05 06:45:45;;;;;;;;;3.50;0.25;;;;;;;;5050793;28;45356;-76
2023/08/05 06:48:10;;;;;;;;;1.00;1.00;;;;;;;;5067463;28;45581;-78
2023/08/05 06:50:36;;;;;;;;;0.50;0.25;;;;;;;;5073127;28;45805;-79
2023/08/05 06:53:01;;;;;;;;;2.25;1.00;;;;;;;;5074087;28;46369;-78
2023/08/05 06:55:26;;;;;;;;;2.00;2.00;;;;;;;;5057323;28;45787;-77
2023/08/05 06:57:52;;;;;;;;;1.00;1.00;;;;;;;;5059581;28;45784;-77
2023/08/05 07:00:18;;;;;;;;;3.00;1.50;;;;;;;;5078031;28;46124;-77
2023/08/05 07:02:43;;;;;;;;;0.00;0.00;;;;;;;;5073293;28;46081;-77
2023/08/05 07:05:09;;;;;;;;;1.50;1.50;;;;;;;;5077553;28;45927;-77
2023/08/05 07:07:34;;;;;;;;;1.25;1.25;;;;;;;;5079178;28;45429;-80
2023/08/05 07:10:03;;;;;;;;;1.75;1.75;;;;;;;;5055829;28;45995;-78
2023/08/05 07:12:28;;;;;;;;;1.50;1.50;;;;;;;;5055137;28;47322;-76
2023/08/05 07:14:53;;;;;;;;;2.50;2.00;;;;;;;;5074094;28;45460;-77
2023/08/05 07:17:19;;;;;;;;;1.00;1.00;;;;;;;;5065061;28;45885;-78
2023/08/05 07:19:44;;;;;;;;;2.00;2.00;;;;;;;;5074913;28;45673;-78
2023/08/05 07:22:10;;;;;;;;;1.00;1.00;;;;;;;;5056489;28;47288;-77
2023/08/05 07:24:37;;;;;;;;;0.50;0.50;;;;;;;;5056611;28;45646;-79
2023/08/05 07:27:03;;;;;;;;;3.75;3.00;;;;;;;;5074739;28;45891;-76
2023/08/05 07:29:29;;;;;;;;;15.67;9.67;;;;;;;;5043758;28;46008;-77
2023/08/05 07:31:54;;;;;;;;;20.33;17.33;;;;;;;;5051760;28;47312;-77
2023/08/05 07:34:20;;;;;;;;;3.00;2.00;;;;;;;;5056066;28;45520;-79
2023/08/05 07:36:46;;;;;;;;;4.00;3.25;;;;;;;;5055038;28;45721;-78
2023/08/05 07:39:11;;;;;;;;;12.00;10.75;;;;;;;;5055998;28;45674;-79
2023/08/05 07:41:37;;;;;;;;;6.25;3.75;;;;;;;;5054164;28;47376;-79
2023/08/05 07:44:03;;;;;;;;;3.00;3.00;;;;;;;;5074850;28;45449;-80
2023/08/05 07:46:36;;;;;;;;;5.75;3.25;;;;;;;;5064377;28;45063;-80
2023/08/05 07:49:03;;;;;;;;;0.00;0.00;;;;;;;;5074806;28;45664;-80
2023/08/05 07:51:29;;;;;;;;;1.00;1.00;;;;;;;;5077296;28;45626;-77
2023/08/05 07:53:55;;;;;;;;;2.50;1.00;;;;;;;;5075655;28;45049;-77
2023/08/05 07:56:22;;;;;;;;;2.50;1.00;;;;;;;;5048084;28;45450;-78
2023/08/05 07:58:47;;;;;;;;;2.00;1.00;;;;;;;;5055555;28;45902;-78
2023/08/05 08:01:19;;;;;;;;;1.25;1.25;;;;;;;;5074634;28;46738;-80
2023/08/05 08:03:45;;;;;;;;;1.00;1.00;;;;;;;;5054675;28;45749;-78
2023/08/05 08:06:14;;;;;;;;;1.00;1.00;;;;;;;;5073130;28;45516;-78
2023/08/05 08:08:39;;;;;;;;;2.50;2.00;;;;;;;;5069980;28;45592;-80
2023/08/05 08:11:05;;;;;;;;;2.00;2.00;;;;;;;;5061990;28;45929;-80
2023/08/05 08:13:30;;;;;;;;;1.75;1.00;;;;;;;;5072050;27;45759;-78
2023/08/05 08:15:55;;;;;;;;;7.33;7.33;;;;;;;;5054513;28;45852;-78
2023/08/05 08:18:21;;;;;;;;;3.00;3.00;;;;;;;;5054912;28;46153;-80
2023/08/05 08:20:50;;;;;;;;;3.00;1.00;;;;;;;;5051106;28;47027;-80
2023/08/05 08:23:15;;;;;;;;;1.00;1.00;;;;;;;;5053826;28;45364;-81
2023/08/05 08:25:41;;;;;;;;;2.00;2.00;;;;;;;;5048932;28;45716;-80
2023/08/05 08:28:06;;;;;;;;;2.25;1.25;;;;;;;;5055871;28;46092;-81
2023/08/05 08:30:31;;;;;;;;;1.25;0.25;;;;;;;;5046030;28;47034;-82
2023/08/05 08:32:57;;;;;;;;;1.00;1.00;;;;;;;;5073258;28;45477;-81
2023/08/05 08:35:22;;;;;;;;;1.50;1.50;;;;;;;;5056600;28;45475;-80
2023/08/05 08:37:47;;;;;;;;;2.00;1.00;;;;;;;;5049032;28;45820;-81
2023/08/05 08:40:12;;;;;;;;;3.25;1.25;;;;;;;;5052285;28;47533;-80
2023/08/05 08:42:38;;;;;;;;;1.00;1.00;;;;;;;;5053852;28;45481;-81
2023/08/05 08:45:05;;;;;;;;;2.00;2.00;;;;;;;;5072508;28;45349;-80
2023/08/05 08:47:31;;;;;;;;;1.50;1.00;;;;;;;;5071990;28;45926;-80
2023/08/05 08:49:58;;;;;;;;;1.25;1.00;;;;;;;;5053610;28;45729;-80
2023/08/05 08:52:23;;;;;;;;;1.75;1.75;;;;;;;;5052109;28;45873;-81
2023/08/05 08:54:50;;;;;;;;;4.00;2.25;;;;;;;;5049621;28;45882;-80
2023/08/05 08:57:16;;;;;;;;;1.75;1.75;;;;;;;;5065161;28;45754;-82
2023/08/05 08:59:41;;;;;;;;;2.50;2.50;;;;;;;;5070910;28;45601;-82
2023/08/05 09:02:16;;;;;;;;;5.25;3.00;;;;;;;;5070672;28;45786;-81
2023/08/05 09:04:44;;;;;;;;;2.25;2.00;;;;;;;;5040248;28;45835;-80
2023/08/05 09:07:10;;;;;;;;;5.67;4.33;;;;;;;;5065270;28;45734;-80
2023/08/05 09:09:35;;;;;;;;;9.00;8.00;;;;;;;;5071732;28;46640;-81
2023/08/05 09:12:02;;;;;;;;;2.50;2.00;;;;;;;;5051135;28;45483;-80
2023/08/05 09:14:28;;;;;;;;;1.00;1.00;;;;;;;;5070436;28;45596;-81
2023/08/05 09:16:58;;;;;;;;;4.00;2.75;;;;;;;;5057194;28;45540;-81
2023/08/05 09:19:25;;;;;;;;;7.33;6.33;;;;;;;;5071742;28;45969;-81
2023/08/05 09:21:51;;;;;;;;;8.67;6.33;;;;;;;;5071536;28;45425;-79
2023/08/05 09:24:20;;;;;;;;;6.00;5.00;;;;;;;;5057970;28;45711;-81
2023/08/05 09:26:45;;;;;;;;;4.00;4.00;;;;;;;;5049690;28;45498;-82
2023/08/05 09:29:20;;;;;;;;;1.75;1.75;;;;;;;;5049261;28;45643;-80
2023/08/05 09:31:53;;;;;;;;;2.50;1.00;;;;;;;;5057346;28;44923;-80
2023/08/05 09:34:19;;;;;;;;;3.50;2.00;;;;;;;;5063631;28;45699;-80
2023/08/05 09:36:45;;;;;;;;;1.00;1.00;;;;;;;;5053407;28;46202;-82
2023/08/05 09:39:13;;;;;;;;;2.00;2.00;;;;;;;;5053292;28;48158;-79
2023/08/05 09:41:39;;;;;;;;;3.67;3.67;;;;;;;;5054288;28;45826;-82
2023/08/05 09:44:08;;;;;;;;;5.00;3.75;;;;;;;;5057526;28;45556;-81
2023/08/05 09:46:45;;;;;;;;;6.75;2.50;;;;;;;;5052158;28;45680;-82
2023/08/05 09:49:14;;;;;;;;;2.00;1.25;;;;;;;;5045358;28;45595;-80
2023/08/05 09:51:42;;;;;;;;;2.75;2.75;;;;;;;;5042463;28;45618;-80
2023/08/05 09:54:12;;;;;;;;;6.00;6.00;;;;;;;;5052107;28;45572;-79
2023/08/05 09:56:40;;;;;;;;;7.25;5.25;;;;;;;;5075694;28;45572;-80
2023/08/05 09:59:07;;;;;;;;;3.50;3.00;;;;;;;;5073310;28;45435;-80
2023/08/05 10:01:32;;;;;;;;;2.00;2.00;;;;;;;;5056135;28;45403;-80
2023/08/05 10:04:05;;;;;;;;;2.00;2.00;;;;;;;;5073196;28;45410;-80
2023/08/05 10:06:31;;;;;;;;;2.00;2.00;;;;;;;;5055005;28;45828;-79
2023/08/05 10:08:57;;;;;;;;;5.50;2.75;;;;;;;;5053859;28;45418;-80
2023/08/05 10:11:25;;;;;;;;;3.00;2.00;;;;;;;;5065205;28;45755;-78
2023/08/05 10:13:53;;;;;;;;;1.00;1.00;;;;;;;;5047444;28;45537;-78
2023/08/05 10:16:18;;;;;;;;;3.00;2.50;;;;;;;;5069142;28;45758;-79
2023/08/05 10:18:48;;;;;;;;;2.00;2.00;;;;;;;;5057079;28;45516;-79
2023/08/05 10:21:34;;;;;;;;;7.50;3.50;;;;;;;;5069903;28;45715;-79
2023/08/05 10:24:01;;;;;;;;;3.00;3.00;;;;;;;;5058230;28;45573;-77
2023/08/05 10:26:37;;;;;;;;;5.00;3.67;;;;;;;;5059185;28;45544;-79
2023/08/05 10:29:22;;;;;;;;;5.50;3.25;;;;;;;;5071271;28;47014;-77
2023/08/05 10:31:48;;;;;;;;;2.00;2.00;;;;;;;;5084436;28;45235;-79
2023/08/05 10:34:17;;;;;;;;;3.75;3.50;;;;;;;;5069062;28;45440;-79
2023/08/05 10:36:44;;;;;;;;;8.67;6.00;;;;;;;;5056298;28;46828;-79
2023/08/05 10:39:32;;;;;;;;;6.33;5.33;;;;;;;;5067696;28;45467;-78
2023/08/05 10:41:58;;;;;;;;;2.50;2.50;;;;;;;;5057136;28;45597;-79
2023/08/05 10:44:34;;;;;;;;;3.00;1.50;;;;;;;;5048077;28;45706;-80
2023/08/05 10:47:22;;;;;;;;;14.00;10.25;;;;;;;;5076517;28;45842;-78
2023/08/05 10:49:51;;;;;;;;;11.67;7.33;;;;;;;;5061389;28;46939;-79
2023/08/05 10:52:20;;;;;;;;;3.50;2.25;;;;;;;;5072280;28;45548;-81
2023/08/05 10:54:46;;;;;;;;;2.75;1.75;;;;;;;;5055430;28;45927;-80
2023/08/05 10:57:31;;;;;;;;;4.67;3.00;;;;;;;;5070760;28;46294;-82
2023/08/05 11:00:01;;;;;;;;;1.50;1.50;;;;;;;;5067224;28;46867;-80
2023/08/05 11:02:26;;;;;;;;;5.25;4.25;;;;;;;;5052822;28;45426;-84
2023/08/05 11:05:03;;;;;;;;;3.00;3.00;;;;;;;;5052174;28;45569;-80
2023/08/05 11:07:30;;;;;;;;;2.00;2.00;;;;;;;;5074941;28;45602;-79
2023/08/05 11:09:56;;;;;;;;;2.50;1.50;;;;;;;;5077633;28;45413;-82
2023/08/05 11:12:23;;;;;;;;;2.00;2.00;;;;;;;;5055770;28;45786;-81
2023/08/05 11:14:49;;;;;;;;;3.00;2.75;;;;;;;;5045424;28;45537;-80
2023/08/05 11:17:16;;;;;;;;;2.50;2.50;;;;;;;;5063170;28;45456;-79
2023/08/05 11:19:51;;;;;;;;;5.50;5.00;;;;;;;;5044228;28;47294;-80
2023/08/05 11:22:22;;;;;;;;;2.75;2.00;;;;;;;;5054036;28;45460;-79
2023/08/05 11:24:53;;;;;;;;;2.00;2.00;;;;;;;;5054751;28;46041;-79
2023/08/05 11:27:20;;;;;;;;;3.50;2.00;;;;;;;;5041749;28;45893;-79
2023/08/05 11:29:45;;;;;;;;;4.50;2.75;;;;;;;;5048058;28;47982;-79
2023/08/05 11:32:11;;;;;;;;;2.25;2.25;;;;;;;;5050898;28;46488;-79
2023/08/05 11:34:45;;;;;;;;;4.00;4.00;;;;;;;;5050901;28;45537;-79
2023/08/05 11:37:11;;;;;;;;;3.75;2.50;;;;;;;;5055707;28;46764;-82
2023/08/05 11:39:41;;;;;;;;;3.50;3.50;;;;;;;;5071556;28;47093;-79
2023/08/05 11:42:12;;;;;;;;;5.75;4.50;;;;;;;;5054965;28;45581;-80
2023/08/05 11:44:40;;;;;;;;;5.00;4.00;;;;;;;;5074141;28;45894;-80
2023/08/05 11:47:06;;;;;;;;;4.00;4.00;;;;;;;;5053730;28;45505;-77
2023/08/05 11:49:31;;;;;;;;;4.75;4.75;;;;;;;;5063142;28;45929;-80
2023/08/05 11:51:58;;;;;;;;;3.75;3.75;;;;;;;;5054114;28;45435;-77
2023/08/05 11:54:28;;;;;;;;;2.50;2.00;;;;;;;;5055001;28;45527;-79
2023/08/05 11:57:16;;;;;;;;;4.00;4.00;;;;;;;;5047155;28;45437;-78
2023/08/05 11:59:47;;;;;;;;;6.25;4.00;;;;;;;;5055519;28;47756;-80
2023/08/05 12:02:26;;;;;;;;;8.00;5.00;;;;;;;;5057245;28;45525;-81
2023/08/05 12:04:58;;;;;;;;;4.25;3.00;;;;;;;;5052358;28;45423;-80
2023/08/05 12:07:26;;;;;;;;;5.00;5.00;;;;;;;;5063902;28;45355;-78
2023/08/05 12:10:08;;;;;;;;;3.75;2.00;;;;;;;;5052392;28;45668;-77
2023/08/05 12:12:34;;;;;;;;;3.75;3.00;;;;;;;;5042628;28;45378;-81
2023/08/05 12:15:09;;;;;;;;;2.25;2.25;;;;;;;;5055423;28;45511;-80
2023/08/05 12:17:35;;;;;;;;;4.00;3.00;;;;;;;;5074916;28;45486;-78
2023/08/05 12:20:03;;;;;;;;;2.00;2.00;;;;;;;;5055526;28;47167;-80
2023/08/05 12:22:29;;;;;;;;;3.50;2.00;;;;;;;;5075384;28;45614;-79
2023/08/05 12:24:54;;;;;;;;;5.00;4.00;;;;;;;;5073893;28;45934;-79
2023/08/05 12:27:19;;;;;;;;;4.50;3.00;;;;;;;;5072656;28;45484;-82
2023/08/05 12:29:47;;;;;;;;;3.75;3.25;;;;;;;;5055645;28;46793;-80
2023/08/05 12:32:15;;;;;;;;;8.25;3.75;;;;;;;;5063369;28;45683;-79
2023/08/05 12:34:44;;;;;;;;;6.00;5.00;;;;;;;;5042622;28;45436;-78
2023/08/05 12:37:09;;;;;;;;;2.00;2.00;;;;;;;;5062729;28;45485;-77
2023/08/05 12:39:35;;;;;;;;;2.50;2.50;;;;;;;;5056173;28;45750;-81
2023/08/05 12:42:00;;;;;;;;;5.25;4.00;;;;;;;;5044793;28;45928;-80
2023/08/05 12:44:26;;;;;;;;;5.00;3.25;;;;;;;;5056790;28;45513;-81
2023/08/05 12:46:52;;;;;;;;;7.00;4.00;;;;;;;;5075708;28;45494;-79
2023/08/05 12:49:18;;;;;;;;;6.00;6.00;;;;;;;;5064789;28;45477;-81
2023/08/05 12:51:44;;;;;;;;;3.00;2.75;;;;;;;;5056096;28;45462;-78
2023/08/05 12:54:09;;;;;;;;;5.25;3.50;;;;;;;;5073854;28;46012;-79
2023/08/05 12:56:35;;;;;;;;;3.75;3.75;;;;;;;;5074415;28;45300;-79
2023/08/05 12:59:01;;;;;;;;;3.50;2.75;;;;;;;;5072881;28;46602;-78
2023/08/05 13:01:28;;;;;;;;;1.25;1.00;;;;;;;;5072571;28;45968;-77
2023/08/05 13:03:57;;;;;;;;;2.25;2.00;;;;;;;;5056319;28;45466;-81
2023/08/05 13:06:23;;;;;;;;;3.50;2.00;;;;;;;;5073429;28;45773;-80
2023/08/05 13:08:51;;;;;;;;;2.25;2.25;;;;;;;;5071475;28;47379;-78
2023/08/05 13:11:17;;;;;;;;;3.00;3.00;;;;;;;;5056157;28;45412;-81
2023/08/05 13:13:43;;;;;;;;;3.00;3.00;;;;;;;;5060397;28;45805;-81
2023/08/05 13:16:09;;;;;;;;;3.00;3.00;;;;;;;;5074621;28;45797;-80
2023/08/05 13:18:34;;;;;;;;;2.25;2.25;;;;;;;;5074533;28;47620;-81
2023/08/05 13:20:59;;;;;;;;;2.25;2.25;;;;;;;;5057637;28;45786;-80
2023/08/05 13:23:25;;;;;;;;;5.00;4.00;;;;;;;;5074212;28;45409;-79
2023/08/05 13:25:50;;;;;;;;;4.00;4.00;;;;;;;;5055901;28;47031;-79
2023/08/05 13:28:15;;;;;;;;;4.00;4.00;;;;;;;;5061693;28;48008;-79
2023/08/05 13:30:41;;;;;;;;;3.50;3.00;;;;;;;;5077637;28;45026;-79
2023/08/05 13:33:06;;;;;;;;;4.33;3.00;;;;;;;;5071608;28;45458;-77
2023/08/05 13:35:31;;;;;;;;;3.33;3.00;;;;;;;;5056281;28;47371;-78
2023/08/05 13:38:00;;;;;;;;;2.00;2.00;;;;;;;;5057497;28;47691;-79
2023/08/05 13:40:26;;;;;;;;;3.00;3.00;;;;;;;;5073769;28;45465;-80
2023/08/05 13:42:55;;;;;;;;;2.25;2.00;;;;;;;;5069597;28;45499;-79
2023/08/05 13:45:20;;;;;;;;;3.50;2.00;;;;;;;;5066791;28;45783;-79
2023/08/05 13:47:46;;;;;;;;;2.75;1.00;;;;;;;;5055970;28;47695;-79
2023/08/05 13:50:12;;;;;;;;;2.25;2.25;;;;;;;;5074678;28;46057;-79
2023/08/05 13:52:40;;;;;;;;;2.00;2.00;;;;;;;;5074060;28;45451;-78
2023/08/05 13:55:09;;;;;;;;;1.00;1.00;;;;;;;;5070134;28;45513;-79
2023/08/05 13:57:37;;;;;;;;;1.25;1.25;;;;;;;;5056877;28;47080;-76
2023/08/05 14:00:06;;;;;;;;;1.00;1.00;;;;;;;;5049434;28;45408;-80
2023/08/05 14:02:32;;;;;;;;;0.00;0.00;;;;;;;;5050482;28;45764;-78
2023/08/05 14:04:57;;;;;;;;;1.00;1.00;;;;;;;;5052999;28;46952;-80
2023/08/05 14:10:30;;;;;;;;;1.00;1.00;;;;;;;;5052910;28;45561;-80
2023/08/05 14:13:05;;;;;;;;;1.00;1.00;;;;;;;;5044983;28;45518;-79
2023/08/05 14:16:16;;;;;;;;;;;;;;;;;;;;;
2023/08/05 14:24:51;;;;;;;;;0.00;0.00;;;;;;;;5032942;28;46047;-81
2023/08/05 14:27:16;;;;;;;;;0.75;0.75;;;;;;;;5039335;28;45594;-82
2023/08/05 14:29:45;;;;;;;;;0.00;0.00;;;;;;;;5064281;28;46314;-81
2023/08/05 14:32:11;;;;;;;;;1.00;0.00;;;;;;;;5050745;28;45844;-81
2023/08/05 14:34:39;;;;;;;;;0.00;0.00;;;;;;;;5070272;28;45549;-80
2023/08/05 14:37:11;;;;;;;;;1.75;0.50;;;;;;;;5071059;28;45804;-81
2023/08/05 14:39:37;;;;;;;;;0.00;0.00;;;;;;;;5053698;28;46815;-80
2023/08/05 14:42:03;;;;;;;;;1.25;1.25;;;;;;;;5072100;28;45416;-81
2023/08/05 14:44:40;;;;;;;;;0.00;0.00;;;;;;;;5054002;28;45453;-79
2023/08/05 14:47:09;;;;;;;;;1.00;0.00;;;;;;;;5072222;28;45663;-79
2023/08/05 14:49:51;;;;;;;;;;;;;;;;;;;;;
2023/08/05 14:52:17;;;;;;;;;0.75;0.00;;;;;;;;5065757;28;73558;-80
2023/08/05 14:54:44;;;;;;;;;0.00;0.00;;;;;;;;5076835;28;45611;-78
2023/08/05 14:57:09;;;;;;;;;0.00;0.00;;;;;;;;5057543;28;46174;-80
2023/08/05 14:59:34;;;;;;;;;0.00;0.00;;;;;;;;5054042;28;45596;-80
2023/08/05 15:01:59;;;;;;;;;0.00;0.00;;;;;;;;5047340;28;46065;-80
2023/08/05 15:04:25;;;;;;;;;1.50;0.00;;;;;;;;5054112;28;45893;-79
2023/08/05 15:06:50;;;;;;;;;1.00;0.00;;;;;;;;5064024;28;45784;-79
2023/08/05 15:09:15;;;;;;;;;1.50;0.00;;;;;;;;5053821;28;48185;-78
2023/08/05 15:11:40;;;;;;;;;0.00;0.00;;;;;;;;5073862;28;45754;-78
2023/08/05 15:14:06;;;;;;;;;0.00;0.00;;;;;;;;5051597;28;45675;-79
2023/08/05 15:16:31;;;;;;;;;1.00;1.00;;;;;;;;5062353;28;45918;-78
2023/08/05 15:18:57;;;;;;;;;1.00;0.00;;;;;;;;5075848;28;46327;-79
2023/08/05 15:21:23;;;;;;;;;0.00;0.00;;;;;;;;5049650;28;45336;-80
2023/08/05 15:23:49;;;;;;;;;0.25;0.25;;;;;;;;5071676;28;45706;-80
2023/08/05 15:26:15;;;;;;;;;0.75;0.75;;;;;;;;5074568;28;45367;-80
2023/08/05 15:28:44;;;;;;;;;0.25;0.25;;;;;;;;5042266;28;46512;-81
2023/08/05 15:31:17;;;;;;;;;0.00;0.00;;;;;;;;5064320;28;45490;-79
2023/08/05 15:33:47;;;;;;;;;0.00;0.00;;;;;;;;5053885;28;45952;-80
2023/08/05 15:36:14;;;;;;;;;0.50;0.50;;;;;;;;5054846;28;46003;-78
2023/08/05 15:38:39;;;;;;;;;2.00;0.75;;;;;;;;5072968;28;45445;-81
2023/08/05 15:41:05;;;;;;;;;0.00;0.00;;;;;;;;5061548;28;45784;-81